createdAt,value
2022-11-27T00:01:41.566Z,9.86
2022-11-27T00:04:11.013Z,9.73
2022-11-27T00:06:42.122Z,9.60
2022-11-27T00:09:15.993Z,9.57
2022-11-27T00:11:46.520Z,9.49
2022-11-27T00:14:20.155Z,9.31
2022-11-27T00:16:51.681Z,9.14
2022-11-27T00:19:18.882Z,9.14
2022-11-27T00:21:47.487Z,9.06
2022-11-27T00:24:16.768Z,9.00
2022-11-27T00:26:43.743Z,8.87
2022-11-27T00:29:18.620Z,9.00
2022-11-27T00:31:50.531Z,8.85
2022-11-27T00:34:26.645Z,9.06
2022-11-27T00:36:53.498Z,9.29
2022-11-27T00:39:21.298Z,9.30
2022-11-27T00:41:48.496Z,9.03
2022-11-27T00:44:15.504Z,9.05
2022-11-27T00:46:47.527Z,9.35
2022-11-27T00:49:17.919Z,9.29
2022-11-27T00:51:48.715Z,9.19
2022-11-27T00:54:15.505Z,8.98
2022-11-27T00:56:46.393Z,9.38
2022-11-27T00:59:15.129Z,9.46
2022-11-27T01:01:46.437Z,9.51
2022-11-27T01:04:21.056Z,9.46
2022-11-27T01:06:48.898Z,9.31
2022-11-27T01:09:18.886Z,9.27
2022-11-27T01:11:45.729Z,9.46
2022-11-27T01:14:26.271Z,9.63
2022-11-27T01:16:56.081Z,9.71
2022-11-27T01:19:24.123Z,9.80
2022-11-27T01:21:53.759Z,9.75
2022-11-27T01:24:20.747Z,9.88
2022-11-27T01:26:50.795Z,10.21
2022-11-27T01:29:19.001Z,10.13
2022-11-27T01:31:46.297Z,9.91
2022-11-27T01:34:17.692Z,9.77
2022-11-27T01:36:46.771Z,9.71
2022-11-27T01:39:20.159Z,9.71
2022-11-27T01:41:49.994Z,10.14
2022-11-27T01:44:33.066Z,9.92
2022-11-27T01:47:15.883Z,9.81
2022-11-27T01:49:48.774Z,9.50
2022-11-27T01:52:41.704Z,9.35
2022-11-27T01:55:13.117Z,9.16
2022-11-27T01:57:51.810Z,9.24
2022-11-27T02:00:24.578Z,9.24
2022-11-27T02:02:53.420Z,9.27
2022-11-27T02:05:25.334Z,9.02
2022-11-27T02:07:58.131Z,9.09
2022-11-27T02:10:44.555Z,9.28
2022-11-27T02:13:43.974Z,9.15
2022-11-27T02:16:36.468Z,9.55
2022-11-27T02:19:43.449Z,10.10
2022-11-27T02:22:18.767Z,9.96
2022-11-27T02:25:17.848Z,9.61
2022-11-27T02:28:14.407Z,9.39
2022-11-27T02:30:48.195Z,9.09
2022-11-27T02:33:21.947Z,8.97
2022-11-27T02:35:56.283Z,9.29
2022-11-27T02:38:34.761Z,9.51
2022-11-27T02:41:27.982Z,9.43
2022-11-27T02:43:57.603Z,9.56
2022-11-27T02:46:31.520Z,9.52
2022-11-27T02:49:13.916Z,9.62
2022-11-27T02:51:47.010Z,9.66
2022-11-27T02:54:26.206Z,9.59
2022-11-27T02:56:59.988Z,9.63
2022-11-27T02:59:38.806Z,9.39
2022-11-27T03:02:17.829Z,9.26
2022-11-27T03:05:00.022Z,9.25
2022-11-27T03:07:40.987Z,9.55
2022-11-27T03:10:30.335Z,9.80
2022-11-27T03:13:06.752Z,9.51
2022-11-27T03:15:57.260Z,9.25
2022-11-27T03:18:53.684Z,9.31
2022-11-27T03:21:34.992Z,9.27
2022-11-27T03:24:11.234Z,9.22
2022-11-27T03:26:45.947Z,9.01
2022-11-27T03:29:22.210Z,9.37
2022-11-27T03:31:53.861Z,9.32
2022-11-27T03:34:22.652Z,9.29
2022-11-27T03:36:49.638Z,9.25
2022-11-27T03:39:16.515Z,9.05
2022-11-27T03:42:04.911Z,9.14
2022-11-27T03:44:45.941Z,8.73
2022-11-27T03:47:26.487Z,8.48
2022-11-27T03:50:34.360Z,8.22
2022-11-27T03:53:20.588Z,8.54
2022-11-27T03:56:33.982Z,8.57
2022-11-27T03:59:20.462Z,8.38
2022-11-27T04:01:47.803Z,8.39
2022-11-27T04:04:15.104Z,8.53
2022-11-27T04:06:50.163Z,9.08
2022-11-27T04:09:17.033Z,8.80
2022-11-27T04:11:43.814Z,8.83
2022-11-27T04:14:10.610Z,8.96
2022-11-27T04:16:37.413Z,9.04
2022-11-27T04:19:11.390Z,8.81
2022-11-27T04:21:43.228Z,8.71
2022-11-27T04:24:12.126Z,8.47
2022-11-27T04:26:38.897Z,8.29
2022-11-27T04:29:06.054Z,8.73
2022-11-27T04:31:38.780Z,8.48
2022-11-27T04:34:13.559Z,8.67
2022-11-27T04:36:42.293Z,8.77
2022-11-27T04:39:13.308Z,8.63
2022-11-27T04:41:48.686Z,8.36
2022-11-27T04:44:18.700Z,8.11
2022-11-27T04:46:48.702Z,8.20
2022-11-27T04:49:15.481Z,8.16
2022-11-27T04:51:43.011Z,8.22
2022-11-27T04:54:12.894Z,8.56
2022-11-27T04:56:45.694Z,8.55
2022-11-27T04:59:13.218Z,8.52
2022-11-27T05:01:43.028Z,8.30
2022-11-27T05:04:10.663Z,8.43
2022-11-27T05:06:44.657Z,8.38
2022-11-27T05:09:16.841Z,8.59
2022-11-27T05:11:46.763Z,9.02
2022-11-27T05:14:19.642Z,9.02
2022-11-27T05:16:52.471Z,9.05
2022-11-27T05:19:25.861Z,8.85
2022-11-27T05:21:55.840Z,8.60
2022-11-27T05:24:32.891Z,8.53
2022-11-27T05:26:59.656Z,8.87
2022-11-27T05:29:26.746Z,9.06
2022-11-27T05:31:56.211Z,8.80
2022-11-27T05:34:28.775Z,8.45
2022-11-27T05:36:55.625Z,8.40
2022-11-27T05:39:28.948Z,8.17
2022-11-27T05:42:00.084Z,8.02
2022-11-27T05:44:34.439Z,8.07
2022-11-27T05:47:08.754Z,7.82
2022-11-27T05:49:42.227Z,8.01
2022-11-27T05:52:09.117Z,8.05
2022-11-27T05:54:35.816Z,8.00
2022-11-27T05:57:12.253Z,8.04
2022-11-27T05:59:40.552Z,7.79
2022-11-27T06:02:07.727Z,7.86
2022-11-27T06:04:43.208Z,7.83
2022-11-27T06:07:14.103Z,7.98
2022-11-27T06:09:45.718Z,7.81
2022-11-27T06:12:19.414Z,7.68
2022-11-27T06:14:55.792Z,7.59
2022-11-27T06:17:28.299Z,7.58
2022-11-27T06:19:55.209Z,7.33
2022-11-27T06:22:22.363Z,7.35
2022-11-27T06:24:52.921Z,7.30
2022-11-27T06:27:23.176Z,7.46
2022-11-27T06:29:50.652Z,7.59
2022-11-27T06:32:22.657Z,7.52
2022-11-27T06:34:49.389Z,7.46
2022-11-27T06:37:19.119Z,7.29
2022-11-27T06:39:47.950Z,7.43
2022-11-27T06:42:29.364Z,7.61
2022-11-27T06:45:02.298Z,7.70
2022-11-27T06:47:29.110Z,7.53
2022-11-27T06:49:58.016Z,7.49
2022-11-27T06:52:28.587Z,7.66
2022-11-27T06:54:57.330Z,7.62
2022-11-27T06:57:25.874Z,7.53
2022-11-27T06:59:54.784Z,7.43
2022-11-27T07:02:23.573Z,7.41
2022-11-27T07:04:52.730Z,7.49
2022-11-27T07:07:25.671Z,7.50
2022-11-27T07:09:54.223Z,7.41
2022-11-27T07:12:27.341Z,7.36
2022-11-27T07:14:59.674Z,7.46
2022-11-27T07:17:29.701Z,7.49
2022-11-27T07:20:04.288Z,7.86
2022-11-27T07:22:35.930Z,8.22
2022-11-27T07:25:09.086Z,8.16
2022-11-27T07:27:35.886Z,8.09
2022-11-27T07:30:06.218Z,7.90
2022-11-27T07:32:46.917Z,7.80
2022-11-27T07:35:15.818Z,7.93
2022-11-27T07:37:54.388Z,7.89
2022-11-27T07:40:21.127Z,7.82
2022-11-27T07:42:49.078Z,8.19
2022-11-27T07:45:21.784Z,7.92
2022-11-27T07:48:06.377Z,7.83
2022-11-27T07:50:39.587Z,7.93
2022-11-27T07:53:08.001Z,8.31
2022-11-27T07:55:34.994Z,8.34
2022-11-27T07:58:04.619Z,8.36
2022-11-27T08:00:43.503Z,8.27
2022-11-27T08:03:11.155Z,8.41
2022-11-27T08:05:38.233Z,8.47
2022-11-27T08:08:05.273Z,8.35
2022-11-27T08:10:45.841Z,8.46
2022-11-27T08:13:12.580Z,8.49
2022-11-27T08:15:42.584Z,8.47
2022-11-27T08:18:19.220Z,8.59
2022-11-27T08:20:53.288Z,8.69
2022-11-27T08:23:21.885Z,8.47
2022-11-27T08:25:53.954Z,8.67
2022-11-27T08:28:20.676Z,8.73
2022-11-27T08:30:58.522Z,8.79
2022-11-27T08:33:28.985Z,8.89
2022-11-27T08:36:03.654Z,9.25
2022-11-27T08:38:32.449Z,9.09
2022-11-27T08:41:07.336Z,9.00
2022-11-27T08:43:37.356Z,9.01
2022-11-27T08:46:12.807Z,8.90
2022-11-27T08:48:42.763Z,8.94
2022-11-27T08:51:14.237Z,9.15
2022-11-27T08:53:41.399Z,9.17
2022-11-27T08:56:37.008Z,8.96
2022-11-27T08:59:06.686Z,9.32
2022-11-27T09:01:36.309Z,9.36
2022-11-27T09:04:05.700Z,9.40
2022-11-27T09:06:40.061Z,9.27
2022-11-27T09:09:18.390Z,9.30
2022-11-27T09:11:52.440Z,9.36
2022-11-27T09:14:21.992Z,9.67
2022-11-27T09:16:52.013Z,10.03
2022-11-27T09:19:23.098Z,10.14
2022-11-27T09:21:51.002Z,10.41
2022-11-27T09:24:17.856Z,10.38
2022-11-27T09:26:47.323Z,10.40
2022-11-27T09:29:14.162Z,10.19
2022-11-27T09:31:46.780Z,10.26
2022-11-27T09:34:16.559Z,10.26
2022-11-27T09:36:43.356Z,10.13
2022-11-27T09:39:14.227Z,9.93
2022-11-27T09:41:56.873Z,10.11
2022-11-27T09:44:54.084Z,10.33
2022-11-27T09:48:01.007Z,10.22
2022-11-27T09:50:32.259Z,10.36
2022-11-27T09:53:23.392Z,10.46
2022-11-27T09:55:53.043Z,10.79
2022-11-27T09:58:42.886Z,11.07
2022-11-27T10:01:20.367Z,11.27
2022-11-27T10:03:52.363Z,11.54
2022-11-27T10:06:39.988Z,11.62
2022-11-27T10:09:23.942Z,11.44
2022-11-27T10:12:09.148Z,11.30
2022-11-27T10:14:54.468Z,11.12
2022-11-27T10:17:31.058Z,11.16
2022-11-27T10:20:33.877Z,11.03
2022-11-27T10:23:33.493Z,10.91
2022-11-27T10:26:12.672Z,11.03
2022-11-27T10:29:18.876Z,11.02
2022-11-27T10:32:05.386Z,10.83
2022-11-27T10:34:43.568Z,10.95
2022-11-27T10:37:28.199Z,11.10
2022-11-27T10:40:39.874Z,11.38
2022-11-27T10:43:20.733Z,11.40
2022-11-27T10:46:00.781Z,11.48
2022-11-27T10:48:39.358Z,11.42
2022-11-27T10:51:26.139Z,11.65
2022-11-27T10:54:00.033Z,11.52
2022-11-27T10:57:07.405Z,11.22
2022-11-27T10:59:45.332Z,11.30
2022-11-27T11:02:39.247Z,11.36
2022-11-27T11:08:23.708Z,11.66
2022-11-27T11:10:52.830Z,11.71
2022-11-27T11:13:28.346Z,11.65
2022-11-27T11:16:00.093Z,11.71
2022-11-27T11:18:39.805Z,11.92
2022-11-27T11:21:07.986Z,11.97
2022-11-27T11:23:40.434Z,11.99
2022-11-27T11:26:39.237Z,11.94
2022-11-27T11:29:30.100Z,12.02
2022-11-27T11:32:34.420Z,11.83
2022-11-27T11:35:35.056Z,11.84
2022-11-27T11:38:07.343Z,12.16
2022-11-27T11:40:36.989Z,12.15
2022-11-27T11:43:30.927Z,12.31
2022-11-27T11:46:10.361Z,12.37
2022-11-27T11:48:38.201Z,12.30
2022-11-27T11:51:29.523Z,12.20
2022-11-27T11:54:35.353Z,12.13
2022-11-27T11:57:20.766Z,12.25
2022-11-27T12:00:03.887Z,12.11
2022-11-27T12:03:10.397Z,12.02
2022-11-27T12:06:00.036Z,11.62
2022-11-27T12:09:00.550Z,11.76
2022-11-27T12:12:00.171Z,11.81
2022-11-27T12:14:40.807Z,11.70
2022-11-27T12:17:13.665Z,11.66
2022-11-27T12:20:21.227Z,11.58
2022-11-27T12:23:02.204Z,11.62
2022-11-27T12:25:45.151Z,11.69
2022-11-27T12:28:41.945Z,11.82
2022-11-27T12:31:43.321Z,11.70
2022-11-27T12:34:49.182Z,11.44
2022-11-27T12:37:37.504Z,11.16
2022-11-27T12:40:12.056Z,11.29
2022-11-27T12:42:41.853Z,11.41
2022-11-27T12:45:31.799Z,11.82
2022-11-27T12:48:08.203Z,11.62
2022-11-27T12:50:39.051Z,11.63
2022-11-27T12:53:24.553Z,11.74
2022-11-27T12:56:18.632Z,11.78
2022-11-27T12:59:01.942Z,11.99
2022-11-27T13:01:48.725Z,11.94
2022-11-27T13:04:40.619Z,11.57
2022-11-27T13:07:54.034Z,11.78
2022-11-27T13:10:42.555Z,12.10
2022-11-27T13:13:28.446Z,12.22
2022-11-27T13:16:00.995Z,11.99
2022-11-27T13:18:34.101Z,11.94
2022-11-27T13:21:03.054Z,11.88
2022-11-27T13:23:33.762Z,12.09
2022-11-27T13:26:07.495Z,12.11
2022-11-27T13:29:03.064Z,12.15
2022-11-27T13:31:39.877Z,12.32
2022-11-27T13:34:10.358Z,12.26
2022-11-27T13:36:44.831Z,11.91
2022-11-27T13:39:32.767Z,11.79
2022-11-27T13:42:13.481Z,11.99
2022-11-27T13:44:44.345Z,11.95
2022-11-27T13:47:24.226Z,11.97
2022-11-27T13:50:08.723Z,12.05
2022-11-27T13:52:52.611Z,12.11
2022-11-27T13:55:43.635Z,12.28
2022-11-27T13:58:10.462Z,12.13
2022-11-27T14:00:52.934Z,12.01
2022-11-27T14:03:28.797Z,12.22
2022-11-27T14:05:57.145Z,12.20
2022-11-27T14:08:59.255Z,12.29
2022-11-27T14:11:40.117Z,12.06
2022-11-27T14:14:24.012Z,12.09
2022-11-27T14:17:12.583Z,12.00
2022-11-27T14:19:48.363Z,11.91
2022-11-27T14:23:13.778Z,11.96
2022-11-27T14:25:40.935Z,12.10
2022-11-27T14:28:35.070Z,11.94
2022-11-27T14:31:05.321Z,11.91
2022-11-27T14:33:47.385Z,11.70
2022-11-27T14:36:26.882Z,11.72
2022-11-27T14:38:53.574Z,11.64
2022-11-27T14:41:22.970Z,11.64
2022-11-27T14:44:10.065Z,11.83
2022-11-27T14:46:43.344Z,11.97
2022-11-27T14:49:23.100Z,11.72
2022-11-27T14:51:53.439Z,11.62
2022-11-27T14:54:37.227Z,11.54
2022-11-27T14:57:08.629Z,11.45
2022-11-27T14:59:35.522Z,11.41
2022-11-27T15:02:06.638Z,11.20
2022-11-27T15:04:54.254Z,11.08
2022-11-27T15:07:28.271Z,11.02
2022-11-27T15:10:14.168Z,10.92
2022-11-27T15:12:49.796Z,10.72
2022-11-27T15:15:22.770Z,10.67
2022-11-27T15:17:53.076Z,10.86
2022-11-27T15:20:39.922Z,10.74
2022-11-27T15:23:38.043Z,10.81
2022-11-27T15:26:21.201Z,10.73
2022-11-27T15:28:53.474Z,10.72
2022-11-27T15:31:29.228Z,10.68
2022-11-27T15:34:25.468Z,10.50
2022-11-27T15:36:58.316Z,10.38
2022-11-27T15:39:38.337Z,10.28
2022-11-27T15:42:09.840Z,10.29
2022-11-27T15:44:40.262Z,10.21
2022-11-27T15:47:26.427Z,10.18
2022-11-27T15:49:53.387Z,10.07
2022-11-27T15:52:29.076Z,10.03
2022-11-27T15:54:59.469Z,9.94
2022-11-27T15:57:26.631Z,9.91
2022-11-27T15:59:56.351Z,9.98
2022-11-27T16:02:27.237Z,10.03
2022-11-27T16:05:00.004Z,9.94
2022-11-27T16:07:26.884Z,9.87
2022-11-27T16:09:56.489Z,9.77
2022-11-27T16:12:23.467Z,9.81
2022-11-27T16:14:50.161Z,9.64
2022-11-27T16:17:19.221Z,9.57
2022-11-27T16:19:52.382Z,9.79
2022-11-27T16:22:26.315Z,9.77
2022-11-27T16:24:56.364Z,9.69
2022-11-27T16:27:23.323Z,9.46
2022-11-27T16:29:55.998Z,9.35
2022-11-27T16:32:25.278Z,9.35
2022-11-27T16:34:52.093Z,9.38
2022-11-27T16:37:18.886Z,9.52
2022-11-27T16:39:51.487Z,9.43
2022-11-27T16:42:18.061Z,9.13
2022-11-27T16:44:45.011Z,9.15
2022-11-27T16:47:12.344Z,9.17
2022-11-27T16:49:39.290Z,9.26
2022-11-27T16:52:06.162Z,9.27
2022-11-27T16:54:35.924Z,9.23
2022-11-27T16:57:10.335Z,8.98
2022-11-27T16:59:38.563Z,8.98
2022-11-27T17:02:07.298Z,8.99
2022-11-27T17:04:37.144Z,9.05
2022-11-27T17:07:09.746Z,9.10
2022-11-27T17:09:42.321Z,9.00
2022-11-27T17:12:09.791Z,8.82
2022-11-27T17:14:41.323Z,8.87
2022-11-27T17:17:08.715Z,8.84
2022-11-27T17:19:42.155Z,8.90
2022-11-27T17:22:23.952Z,8.82
2022-11-27T17:24:51.912Z,8.85
2022-11-27T17:27:19.109Z,8.80
2022-11-27T17:29:45.950Z,8.76
2022-11-27T17:32:20.661Z,8.83
2022-11-27T17:34:48.887Z,8.71
2022-11-27T17:37:15.873Z,8.59
2022-11-27T17:39:45.270Z,8.58
2022-11-27T17:42:14.590Z,8.53
2022-11-27T17:44:50.746Z,8.73
2022-11-27T17:47:20.030Z,8.68
2022-11-27T17:49:47.140Z,8.63
2022-11-27T17:52:19.187Z,8.58
2022-11-27T17:54:45.989Z,8.68
2022-11-27T17:57:16.174Z,8.61
2022-11-27T17:59:44.144Z,8.54
2022-11-27T18:02:14.945Z,8.48
2022-11-27T18:04:57.298Z,8.41
2022-11-27T18:07:28.279Z,8.37
2022-11-27T18:10:05.066Z,8.34
2022-11-27T18:12:32.018Z,8.31
2022-11-27T18:15:07.212Z,8.27
2022-11-27T18:17:37.708Z,8.19
2022-11-27T18:20:10.550Z,8.19
2022-11-27T18:22:37.308Z,8.29
2022-11-27T18:25:04.794Z,8.49
2022-11-27T18:27:32.829Z,8.30
2022-11-27T18:30:04.359Z,8.25
2022-11-27T18:32:40.797Z,8.19
2022-11-27T18:35:07.914Z,8.24
2022-11-27T18:37:39.559Z,8.29
2022-11-27T18:40:10.259Z,8.31
2022-11-27T18:42:42.504Z,8.31
2022-11-27T18:45:31.306Z,8.22
2022-11-27T18:48:04.839Z,8.14
2022-11-27T18:50:31.788Z,8.11
2022-11-27T18:52:58.777Z,8.09
2022-11-27T18:55:33.120Z,8.12
2022-11-27T18:58:11.744Z,8.12
2022-11-27T19:00:47.636Z,8.19
2022-11-27T19:03:15.686Z,8.18
2022-11-27T19:05:44.958Z,8.06
2022-11-27T19:08:12.945Z,8.12
2022-11-27T19:10:40.091Z,8.30
2022-11-27T19:13:09.918Z,8.36
2022-11-27T19:15:41.377Z,8.33
2022-11-27T19:18:13.806Z,8.20
2022-11-27T19:20:42.511Z,8.13
2022-11-27T19:23:17.075Z,8.22
2022-11-27T19:25:47.675Z,8.25
2022-11-27T19:28:23.823Z,8.13
2022-11-27T19:30:50.544Z,7.95
2022-11-27T19:33:17.395Z,7.90
2022-11-27T19:35:44.208Z,7.93
2022-11-27T19:38:13.959Z,7.80
2022-11-27T19:40:43.531Z,7.85
2022-11-27T19:43:10.219Z,7.71
2022-11-27T19:45:38.153Z,7.70
2022-11-27T19:48:09.856Z,7.72
2022-11-27T19:50:51.843Z,7.68
2022-11-27T19:53:18.870Z,7.70
2022-11-27T19:55:53.139Z,7.77
2022-11-27T19:58:20.022Z,7.72
2022-11-27T20:00:47.124Z,7.82
2022-11-27T20:03:14.408Z,7.86
2022-11-27T20:05:43.937Z,7.84
2022-11-27T20:08:10.655Z,7.70
2022-11-27T20:10:38.650Z,7.62
2022-11-27T20:13:05.356Z,7.64
2022-11-27T20:15:46.735Z,7.67
2022-11-27T20:18:29.138Z,7.67
2022-11-27T20:21:21.383Z,7.62
2022-11-27T20:23:55.911Z,7.53
2022-11-27T20:26:28.399Z,7.53
2022-11-27T20:28:55.280Z,7.48
2022-11-27T20:31:25.063Z,7.49
2022-11-27T20:33:53.945Z,7.46
2022-11-27T20:36:22.378Z,7.50
2022-11-27T20:38:55.682Z,7.48
2022-11-27T20:41:29.154Z,7.47
2022-11-27T20:43:59.979Z,7.71
2022-11-27T20:46:35.378Z,7.85
2022-11-27T20:49:09.676Z,8.20
2022-11-27T20:51:36.711Z,8.26
2022-11-27T20:54:06.232Z,8.60
2022-11-27T20:56:33.282Z,8.36
2022-11-27T20:59:01.213Z,7.96
2022-11-27T21:01:36.953Z,7.78
2022-11-27T21:04:17.535Z,7.75
2022-11-27T21:06:50.761Z,7.78
2022-11-27T21:09:26.457Z,7.64
2022-11-27T21:11:55.892Z,7.58
2022-11-27T21:14:30.647Z,7.51
2022-11-27T21:17:05.123Z,7.51
2022-11-27T21:19:34.620Z,7.46
2022-11-27T21:22:01.416Z,7.34
2022-11-27T21:24:31.841Z,7.30
2022-11-27T21:26:58.823Z,7.28
2022-11-27T21:29:30.616Z,7.45
2022-11-27T21:31:57.986Z,7.60
2022-11-27T21:34:28.053Z,7.90
2022-11-27T21:36:55.778Z,7.90
2022-11-27T21:39:24.009Z,7.98
2022-11-27T21:41:55.554Z,7.90
2022-11-27T21:44:23.899Z,7.84
2022-11-27T21:46:52.647Z,7.87
2022-11-27T21:49:21.618Z,7.77
2022-11-27T21:51:55.449Z,7.60
2022-11-27T21:54:28.039Z,7.47
2022-11-27T21:57:00.696Z,7.30
2022-11-27T21:59:37.620Z,7.34
2022-11-27T22:02:04.715Z,7.62
2022-11-27T22:04:31.541Z,7.50
2022-11-27T22:06:58.189Z,7.40
2022-11-27T22:09:24.863Z,7.31
2022-11-27T22:11:52.672Z,7.17
2022-11-27T22:14:22.628Z,7.18
2022-11-27T22:16:53.274Z,7.12
2022-11-27T22:19:20.762Z,7.11
2022-11-27T22:21:51.943Z,7.13
2022-11-27T22:24:22.095Z,7.11
2022-11-27T22:26:49.725Z,7.14
2022-11-27T22:29:16.803Z,7.19
2022-11-27T22:31:47.402Z,6.99
2022-11-27T22:34:16.651Z,6.95
2022-11-27T22:36:51.588Z,7.12
2022-11-27T22:39:19.606Z,7.09
2022-11-27T22:41:51.860Z,7.12
2022-11-27T22:44:21.065Z,7.01
2022-11-27T22:46:51.485Z,7.01
2022-11-27T22:49:21.978Z,7.14
2022-11-27T22:51:49.304Z,7.02
2022-11-27T22:54:17.574Z,7.07
2022-11-27T22:56:47.041Z,7.06
2022-11-27T23:02:05.159Z,6.91
2022-11-27T23:04:34.396Z,6.98
2022-11-27T23:07:02.805Z,7.00
2022-11-27T23:09:32.707Z,7.10
2022-11-27T23:11:59.722Z,7.18
2022-11-27T23:14:35.463Z,7.15
2022-11-27T23:17:02.245Z,7.04
2022-11-27T23:19:29.079Z,6.99
2022-11-27T23:21:55.962Z,6.97
2022-11-27T23:24:32.848Z,6.79
2022-11-27T23:27:09.041Z,6.81
2022-11-27T23:29:38.500Z,6.82
2022-11-27T23:32:05.544Z,6.74
2022-11-27T23:34:34.281Z,6.75
2022-11-27T23:37:01.504Z,6.75
2022-11-27T23:39:28.305Z,7.19
2022-11-27T23:41:58.022Z,6.99
2022-11-27T23:44:27.480Z,6.74
2022-11-27T23:46:58.577Z,6.72
2022-11-27T23:49:25.724Z,6.74
2022-11-27T23:51:57.708Z,6.76
2022-11-27T23:54:27.572Z,6.76
2022-11-27T23:56:54.361Z,6.66
2022-11-27T23:59:26.001Z,6.59
